createdAt,value
2018-10-07T00:01:20.966Z,17.30
2018-10-07T00:03:49.953Z,16.60
2018-10-07T00:06:18.961Z,16.60
2018-10-07T00:08:47.989Z,17.00
2018-10-07T00:11:16.959Z,16.60
2018-10-07T00:13:45.893Z,16.90
2018-10-07T00:16:14.974Z,17.20
2018-10-07T00:18:43.805Z,16.50
2018-10-07T00:21:12.717Z,16.80
2018-10-07T00:23:41.682Z,17.10
2018-10-07T00:26:10.720Z,16.40
2018-10-07T00:28:39.693Z,16.50
2018-10-07T00:31:08.895Z,16.80
2018-10-07T00:33:37.905Z,16.80
2018-10-07T00:36:06.903Z,17.00
2018-10-07T00:38:35.923Z,17.60
2018-10-07T00:41:04.866Z,17.60
2018-10-07T00:43:33.822Z,17.20
2018-10-07T00:46:02.925Z,17.00
2018-10-07T00:48:31.870Z,16.60
2018-10-07T00:51:01.003Z,16.60
2018-10-07T00:53:29.978Z,16.10
2018-10-07T00:55:59.114Z,16.20
2018-10-07T00:58:28.178Z,16.20
2018-10-07T01:00:57.363Z,16.90
2018-10-07T01:03:26.294Z,17.30
2018-10-07T01:05:55.398Z,16.90
2018-10-07T01:08:24.302Z,16.90
2018-10-07T01:10:53.321Z,17.10
2018-10-07T01:13:22.082Z,16.50
2018-10-07T01:15:51.126Z,16.50
2018-10-07T01:18:20.137Z,16.80
2018-10-07T01:20:49.213Z,17.20
2018-10-07T01:23:18.253Z,17.10
2018-10-07T01:25:47.190Z,16.00
2018-10-07T01:28:16.154Z,15.60
2018-10-07T01:30:45.142Z,16.20
2018-10-07T01:33:14.199Z,15.90
2018-10-07T01:35:43.230Z,16.30
2018-10-07T01:38:12.492Z,17.10
2018-10-07T01:40:41.350Z,16.30
2018-10-07T01:43:10.302Z,16.50
2018-10-07T01:45:39.278Z,16.10
2018-10-07T01:48:08.174Z,16.60
2018-10-07T01:50:37.132Z,16.50
2018-10-07T01:53:06.114Z,16.40
2018-10-07T01:55:35.293Z,16.30
2018-10-07T01:58:04.281Z,16.70
2018-10-07T02:00:33.298Z,17.00
2018-10-07T02:03:02.242Z,16.50
2018-10-07T02:05:31.211Z,17.40
2018-10-07T02:08:00.162Z,17.20
2018-10-07T02:10:29.133Z,16.20
2018-10-07T02:12:58.174Z,16.50
2018-10-07T02:15:27.406Z,16.20
2018-10-07T02:17:56.391Z,16.50
2018-10-07T02:20:25.330Z,16.80
2018-10-07T02:22:54.353Z,15.50
2018-10-07T02:25:23.274Z,16.20
2018-10-07T02:27:52.255Z,16.30
2018-10-07T02:30:21.314Z,15.60
2018-10-07T02:32:50.290Z,15.40
2018-10-07T02:35:19.449Z,16.00
2018-10-07T02:37:48.374Z,15.50
2018-10-07T02:40:18.242Z,15.90
2018-10-07T02:42:46.944Z,16.50
2018-10-07T02:45:15.670Z,15.70
2018-10-07T02:47:44.593Z,16.10
2018-10-07T02:50:19.078Z,15.90
2018-10-07T02:52:50.145Z,15.40
2018-10-07T02:55:22.950Z,15.20
2018-10-07T02:57:53.474Z,16.30
2018-10-07T03:00:22.424Z,15.70
2018-10-07T03:02:51.993Z,15.60
2018-10-07T03:05:20.986Z,15.30
2018-10-07T03:07:50.104Z,15.90
2018-10-07T03:10:19.097Z,15.80
2018-10-07T03:12:48.060Z,15.50
2018-10-07T03:15:17.098Z,15.30
2018-10-07T03:17:46.078Z,15.50
2018-10-07T03:20:15.210Z,15.00
2018-10-07T03:22:44.221Z,14.60
2018-10-07T03:25:13.199Z,14.40
2018-10-07T03:27:42.318Z,14.30
2018-10-07T03:30:11.430Z,15.10
2018-10-07T03:32:40.446Z,14.40
2018-10-07T03:35:09.418Z,14.00
2018-10-07T03:37:38.550Z,14.80
2018-10-07T03:40:07.482Z,14.90
2018-10-07T03:42:36.467Z,14.30
2018-10-07T03:45:05.434Z,14.30
2018-10-07T03:47:34.473Z,13.80
2018-10-07T03:50:03.454Z,13.40
2018-10-07T03:52:32.489Z,14.00
2018-10-07T03:55:01.488Z,14.70
2018-10-07T03:57:30.530Z,14.20
2018-10-07T03:59:59.899Z,13.90
2018-10-07T04:02:28.929Z,13.80
2018-10-07T04:04:57.916Z,14.70
2018-10-07T04:07:27.862Z,13.50
2018-10-07T04:09:57.079Z,13.80
2018-10-07T04:12:25.819Z,13.90
2018-10-07T04:14:54.499Z,14.40
2018-10-07T04:17:23.459Z,13.80
2018-10-07T04:19:52.434Z,14.30
2018-10-07T04:22:21.458Z,14.30
2018-10-07T04:24:50.572Z,13.40
2018-10-07T04:27:19.558Z,13.40
2018-10-07T04:29:48.590Z,14.70
2018-10-07T04:32:17.476Z,14.20
2018-10-07T04:34:46.494Z,14.80
2018-10-07T04:37:15.466Z,13.90
2018-10-07T04:39:44.434Z,13.80
2018-10-07T04:42:13.322Z,13.70
2018-10-07T04:44:42.318Z,13.10
2018-10-07T04:47:11.289Z,13.00
2018-10-07T04:49:40.282Z,13.00
2018-10-07T04:52:09.291Z,13.30
2018-10-07T04:54:38.226Z,13.70
2018-10-07T04:57:07.093Z,13.40
2018-10-07T04:59:36.030Z,13.30
2018-10-07T05:02:05.097Z,12.80
2018-10-07T05:04:34.160Z,12.90
2018-10-07T05:07:03.329Z,13.00
2018-10-07T05:09:32.698Z,12.90
2018-10-07T05:12:03.563Z,13.80
2018-10-07T05:14:32.845Z,13.80
2018-10-07T05:17:02.454Z,13.20
2018-10-07T05:19:31.374Z,13.50
2018-10-07T05:22:00.239Z,13.70
2018-10-07T05:24:29.254Z,13.80
2018-10-07T05:26:58.373Z,13.50
2018-10-07T05:29:27.345Z,12.50
2018-10-07T05:31:56.369Z,12.70
2018-10-07T05:34:25.352Z,13.00
2018-10-07T05:36:54.283Z,13.10
2018-10-07T05:39:23.247Z,12.50
2018-10-07T05:41:52.285Z,13.80
2018-10-07T05:44:21.289Z,13.50
2018-10-07T05:46:50.323Z,13.80
2018-10-07T05:49:19.269Z,13.60
2018-10-07T05:51:48.242Z,12.60
2018-10-07T05:54:17.402Z,12.70
2018-10-07T05:56:46.442Z,12.40
2018-10-07T05:59:15.630Z,12.90
2018-10-07T06:01:45.464Z,12.50
2018-10-07T06:04:50.193Z,13.30
2018-10-07T06:07:19.744Z,13.20
2018-10-07T06:09:48.811Z,12.80
2018-10-07T06:12:18.006Z,14.00
2018-10-07T06:14:57.911Z,13.30
2018-10-07T06:17:26.937Z,13.50
2018-10-07T06:19:55.978Z,12.90
2018-10-07T06:22:25.180Z,13.00
2018-10-07T06:24:53.910Z,13.20
2018-10-07T06:27:23.447Z,14.20
2018-10-07T06:29:52.653Z,12.60
2018-10-07T06:32:21.662Z,12.90
2018-10-07T06:34:50.634Z,12.70
2018-10-07T06:37:19.575Z,12.60
2018-10-07T06:39:48.716Z,12.60
2018-10-07T06:42:17.809Z,13.00
2018-10-07T06:44:46.765Z,13.60
2018-10-07T06:47:15.903Z,13.40
2018-10-07T06:49:44.923Z,13.30
2018-10-07T06:52:13.930Z,13.10
2018-10-07T06:54:42.879Z,12.10
2018-10-07T06:57:11.893Z,12.70
2018-10-07T06:59:41.173Z,12.70
2018-10-07T07:02:10.109Z,12.30
2018-10-07T07:04:39.286Z,11.90
2018-10-07T07:07:09.222Z,12.10
2018-10-07T07:09:38.079Z,12.10
2018-10-07T07:12:07.155Z,12.10
2018-10-07T07:14:36.190Z,13.30
2018-10-07T07:17:05.257Z,13.50
2018-10-07T07:19:34.190Z,12.80
2018-10-07T07:22:03.179Z,12.80
2018-10-07T07:24:32.321Z,12.70
2018-10-07T07:27:01.181Z,12.40
2018-10-07T07:29:30.366Z,12.60
2018-10-07T07:31:59.406Z,13.30
2018-10-07T07:34:29.278Z,13.30
2018-10-07T07:36:58.403Z,13.40
2018-10-07T07:39:27.514Z,13.00
2018-10-07T07:41:56.889Z,12.10
2018-10-07T07:44:25.894Z,12.50
2018-10-07T07:46:55.611Z,12.60
2018-10-07T07:49:24.622Z,11.90
2018-10-07T07:51:53.314Z,12.50
2018-10-07T07:54:22.065Z,13.80
2018-10-07T07:56:51.193Z,13.70
2018-10-07T07:59:20.256Z,13.80
2018-10-07T08:01:49.211Z,13.00
2018-10-07T08:04:18.182Z,12.30
2018-10-07T08:06:47.349Z,12.30
2018-10-07T08:09:16.222Z,12.70
2018-10-07T08:11:45.225Z,13.40
2018-10-07T08:14:14.234Z,13.30
2018-10-07T08:16:43.272Z,12.90
2018-10-07T08:19:12.243Z,13.30
2018-10-07T08:21:41.235Z,13.70
2018-10-07T08:24:10.255Z,13.30
2018-10-07T08:26:39.301Z,13.00
2018-10-07T08:29:08.378Z,13.10
2018-10-07T08:31:37.509Z,13.80
2018-10-07T08:34:06.490Z,13.70
2018-10-07T08:36:35.509Z,13.60
2018-10-07T08:39:05.718Z,13.80
2018-10-07T08:41:34.718Z,13.80
2018-10-07T08:44:03.872Z,13.60
2018-10-07T08:46:32.861Z,13.60
2018-10-07T08:49:01.934Z,13.60
2018-10-07T08:51:30.946Z,14.30
2018-10-07T08:53:59.982Z,14.30
2018-10-07T08:56:29.285Z,14.40
2018-10-07T08:58:58.164Z,13.40
2018-10-07T09:01:27.209Z,15.00
2018-10-07T09:03:56.190Z,15.00
2018-10-07T09:06:25.226Z,14.40
2018-10-07T09:08:54.322Z,14.50
2018-10-07T09:11:23.442Z,14.40
2018-10-07T09:13:52.304Z,14.40
2018-10-07T09:16:21.228Z,14.40
2018-10-07T09:18:50.031Z,14.50
2018-10-07T09:21:18.766Z,14.40
2018-10-07T09:23:47.499Z,14.90
2018-10-07T09:26:16.474Z,15.10
2018-10-07T09:28:45.354Z,14.20
2018-10-07T09:31:14.292Z,15.60
2018-10-07T09:33:43.257Z,14.70
2018-10-07T09:36:12.265Z,14.10
2018-10-07T09:38:41.260Z,15.00
2018-10-07T09:41:10.082Z,15.30
2018-10-07T09:43:39.058Z,15.50
2018-10-07T09:46:08.106Z,14.80
2018-10-07T09:48:37.176Z,15.40
2018-10-07T09:51:06.270Z,14.60
2018-10-07T09:53:35.341Z,14.80
2018-10-07T09:56:04.434Z,15.30
2018-10-07T09:58:33.313Z,15.30
2018-10-07T10:01:02.279Z,14.90
2018-10-07T10:03:31.314Z,14.60
2018-10-07T10:06:00.390Z,15.20
2018-10-07T10:08:29.566Z,15.10
2018-10-07T10:10:58.579Z,14.70
2018-10-07T10:13:27.638Z,14.40
2018-10-07T10:15:56.617Z,14.60
2018-10-07T10:18:58.115Z,14.00
2018-10-07T10:21:34.830Z,14.70
2018-10-07T10:26:17.445Z,14.00
2018-10-07T10:29:30.166Z,14.30
2018-10-07T10:33:08.264Z,15.40
2018-10-07T10:36:02.387Z,15.50
2018-10-07T10:39:09.104Z,15.20
2018-10-07T10:41:45.109Z,15.40
2018-10-07T10:44:31.385Z,15.20
2018-10-07T10:47:10.402Z,15.90
2018-10-07T10:49:48.249Z,15.10
2018-10-07T10:52:22.113Z,15.50
2018-10-07T10:54:57.682Z,15.50
2018-10-07T10:57:32.157Z,15.60
2018-10-07T11:00:09.545Z,15.30
2018-10-07T11:04:52.297Z,15.90
2018-10-07T11:07:32.457Z,16.10
2018-10-07T11:10:41.768Z,16.20
2018-10-07T11:13:21.302Z,15.60
2018-10-07T11:16:03.234Z,15.80
2018-10-07T11:20:50.938Z,15.30
2018-10-07T11:24:31.663Z,16.00
2018-10-07T11:27:04.658Z,16.30
2018-10-07T11:29:39.258Z,17.30
2018-10-07T11:32:27.426Z,15.90
2018-10-07T11:35:22.501Z,17.10
2018-10-07T11:38:02.487Z,15.80
2018-10-07T11:40:42.297Z,15.20
2018-10-07T11:43:37.278Z,15.10
2018-10-07T11:46:17.134Z,16.20
2018-10-07T11:49:20.232Z,16.50
2018-10-07T11:51:56.392Z,15.90
2018-10-07T11:54:36.063Z,15.60
2018-10-07T11:57:05.231Z,15.70
2018-10-07T11:59:34.181Z,15.60
2018-10-07T12:02:03.283Z,15.80
2018-10-07T12:04:32.297Z,15.40
2018-10-07T12:07:01.377Z,15.70
2018-10-07T12:09:30.292Z,15.90
2018-10-07T12:11:59.315Z,15.70
2018-10-07T12:14:28.029Z,15.90
2018-10-07T12:16:56.782Z,15.90
2018-10-07T12:19:25.461Z,16.00
2018-10-07T12:21:54.190Z,16.10
2018-10-07T12:24:22.885Z,15.80
2018-10-07T12:26:51.733Z,15.60
2018-10-07T12:29:20.689Z,15.60
2018-10-07T12:31:49.840Z,15.70
2018-10-07T12:34:18.806Z,15.80
2018-10-07T12:36:48.025Z,16.00
2018-10-07T12:39:17.493Z,15.90
2018-10-07T12:41:46.477Z,15.80
2018-10-07T12:44:15.442Z,16.10
2018-10-07T12:46:44.603Z,16.10
2018-10-07T12:49:13.869Z,16.10
2018-10-07T12:51:43.016Z,16.20
2018-10-07T12:54:11.987Z,16.30
2018-10-07T12:56:41.135Z,16.30
2018-10-07T12:59:11.213Z,16.40
2018-10-07T13:01:40.285Z,16.20
2018-10-07T13:04:09.411Z,16.00
2018-10-07T13:06:38.506Z,16.10
2018-10-07T13:09:11.850Z,16.20
2018-10-07T13:11:41.146Z,16.10
2018-10-07T13:14:10.336Z,16.20
2018-10-07T13:16:39.869Z,16.10
2018-10-07T13:19:09.092Z,15.90
2018-10-07T13:21:38.127Z,15.80
2018-10-07T13:24:07.025Z,15.70
2018-10-07T13:26:35.928Z,16.20
2018-10-07T13:29:04.949Z,16.30
2018-10-07T13:31:33.926Z,16.10
2018-10-07T13:34:02.966Z,15.80
2018-10-07T13:36:31.949Z,16.10
2018-10-07T13:39:01.082Z,16.10
2018-10-07T13:41:30.099Z,16.00
2018-10-07T13:43:58.837Z,16.20
2018-10-07T13:46:27.555Z,16.70
2018-10-07T13:48:56.273Z,16.70
2018-10-07T13:51:24.962Z,16.60
2018-10-07T13:53:53.969Z,16.50
2018-10-07T13:56:22.842Z,16.50
2018-10-07T13:58:51.946Z,16.50
2018-10-07T14:01:21.053Z,16.30
2018-10-07T14:03:50.032Z,16.20
2018-10-07T14:06:19.054Z,16.00
2018-10-07T14:08:48.026Z,16.20
2018-10-07T14:11:16.974Z,16.50
2018-10-07T14:13:45.993Z,16.30
2018-10-07T14:16:14.989Z,16.20
2018-10-07T14:18:44.234Z,16.00
2018-10-07T14:21:13.229Z,16.00
2018-10-07T14:23:42.354Z,15.90
2018-10-07T14:26:11.310Z,15.80
2018-10-07T14:28:40.270Z,15.70
2018-10-07T14:31:09.260Z,15.70
2018-10-07T14:33:38.322Z,15.70
2018-10-07T14:36:07.352Z,15.70
2018-10-07T14:38:36.446Z,16.00
2018-10-07T14:41:05.457Z,15.90
2018-10-07T14:43:34.351Z,16.20
2018-10-07T14:46:03.286Z,16.10
2018-10-07T14:48:32.358Z,16.20
2018-10-07T14:51:01.298Z,15.90
2018-10-07T14:53:30.261Z,16.00
2018-10-07T14:55:59.396Z,16.00
2018-10-07T14:58:28.486Z,16.20
2018-10-07T15:00:57.566Z,16.10
2018-10-07T15:03:26.480Z,16.20
2018-10-07T15:05:55.521Z,16.20
2018-10-07T15:08:24.398Z,16.10
2018-10-07T15:10:53.438Z,16.20
2018-10-07T15:13:22.172Z,16.30
2018-10-07T15:15:50.889Z,16.10
2018-10-07T15:18:19.566Z,16.00
2018-10-07T15:20:48.814Z,16.10
2018-10-07T15:23:17.503Z,16.10
2018-10-07T15:25:46.548Z,16.20
2018-10-07T15:28:15.541Z,16.30
2018-10-07T15:30:44.501Z,16.30
2018-10-07T15:33:13.457Z,15.90
2018-10-07T15:35:42.595Z,16.00
2018-10-07T15:38:11.653Z,15.80
2018-10-07T15:40:40.614Z,15.40
2018-10-07T15:43:09.569Z,15.50
2018-10-07T15:45:38.453Z,15.60
2018-10-07T15:48:07.497Z,15.80
2018-10-07T15:50:36.464Z,15.90
2018-10-07T15:53:05.502Z,15.80
2018-10-07T15:55:34.481Z,16.10
2018-10-07T15:58:03.505Z,15.90
2018-10-07T16:00:32.578Z,16.00
2018-10-07T16:03:01.628Z,15.90
2018-10-07T16:05:30.593Z,16.00
2018-10-07T16:07:59.633Z,15.60
2018-10-07T16:10:28.551Z,15.40
2018-10-07T16:12:57.555Z,15.30
2018-10-07T16:15:26.418Z,15.50
2018-10-07T16:17:55.450Z,15.60
2018-10-07T16:20:24.419Z,16.00
2018-10-07T16:22:53.629Z,15.80
2018-10-07T16:25:22.761Z,15.50
2018-10-07T16:27:52.041Z,15.40
2018-10-07T16:30:21.025Z,15.70
2018-10-07T16:32:50.248Z,15.30
2018-10-07T16:35:19.127Z,15.10
2018-10-07T16:37:48.106Z,15.30
2018-10-07T16:40:17.105Z,15.30
2018-10-07T16:42:45.837Z,14.90
2018-10-07T16:45:14.643Z,15.00
2018-10-07T16:47:43.420Z,15.60
2018-10-07T16:50:12.387Z,16.00
2018-10-07T16:52:41.229Z,16.10
2018-10-07T16:55:10.216Z,15.80
2018-10-07T16:57:39.326Z,15.90
2018-10-07T17:00:08.294Z,15.70
2018-10-07T17:02:37.198Z,15.60
2018-10-07T17:05:06.234Z,15.80
2018-10-07T17:07:35.230Z,15.20
2018-10-07T17:10:04.241Z,15.20
2018-10-07T17:12:33.114Z,15.10
2018-10-07T17:15:02.068Z,15.60
2018-10-07T17:17:31.066Z,16.00
2018-10-07T17:20:00.098Z,15.90
2018-10-07T17:22:29.078Z,15.50
2018-10-07T17:24:58.202Z,15.60
2018-10-07T17:27:27.238Z,15.90
2018-10-07T17:29:56.285Z,16.00
2018-10-07T17:32:25.270Z,16.10
2018-10-07T17:34:54.309Z,16.20
2018-10-07T17:37:23.466Z,16.20
2018-10-07T17:39:52.433Z,16.20
2018-10-07T17:42:21.511Z,16.10
2018-10-07T17:44:50.463Z,16.00
2018-10-07T17:47:19.435Z,16.10
2018-10-07T17:49:48.434Z,16.00
2018-10-07T17:52:17.361Z,16.00
2018-10-07T17:54:46.446Z,15.90
2018-10-07T17:57:15.408Z,15.90
2018-10-07T17:59:44.474Z,15.90
2018-10-07T18:02:13.550Z,16.10
2018-10-07T18:04:42.677Z,16.00
2018-10-07T18:07:11.962Z,16.00
2018-10-07T18:09:41.001Z,16.10
2018-10-07T18:12:10.077Z,16.00
2018-10-07T18:14:38.797Z,15.90
2018-10-07T18:17:07.493Z,15.80
2018-10-07T18:19:36.263Z,15.50
2018-10-07T18:22:04.949Z,15.30
2018-10-07T18:24:33.686Z,15.30
2018-10-07T18:27:02.668Z,15.30
2018-10-07T18:29:31.571Z,15.40
2018-10-07T18:32:00.608Z,15.60
2018-10-07T18:34:29.657Z,15.60
2018-10-07T18:36:58.613Z,15.70
2018-10-07T18:39:27.566Z,15.80
2018-10-07T18:41:56.494Z,15.60
2018-10-07T18:44:25.507Z,15.40
2018-10-07T18:46:54.458Z,15.60
2018-10-07T18:49:23.309Z,15.80
2018-10-07T18:51:52.245Z,15.50
2018-10-07T18:54:21.120Z,15.70
2018-10-07T18:56:50.138Z,15.50
2018-10-07T18:59:19.242Z,15.40
2018-10-07T19:01:48.230Z,15.70
2018-10-07T19:04:17.451Z,15.90
2018-10-07T19:06:46.475Z,16.00
2018-10-07T19:09:15.462Z,15.90
2018-10-07T19:11:44.487Z,16.00
2018-10-07T19:14:13.467Z,16.00
2018-10-07T19:16:42.450Z,16.00
2018-10-07T19:19:11.603Z,16.10
2018-10-07T19:21:40.649Z,16.10
2018-10-07T19:24:09.696Z,16.10
2018-10-07T19:26:38.903Z,16.10
2018-10-07T19:29:07.971Z,16.10
2018-10-07T19:31:36.914Z,16.00
2018-10-07T19:34:06.045Z,16.10
2018-10-07T19:36:35.024Z,16.10
2018-10-07T19:39:04.763Z,16.10
2018-10-07T19:41:33.727Z,16.20
2018-10-07T19:44:02.698Z,16.20
2018-10-07T19:46:31.678Z,16.20
2018-10-07T19:49:00.404Z,16.20
2018-10-07T19:51:29.098Z,16.20
2018-10-07T19:53:57.931Z,16.20
2018-10-07T19:56:26.853Z,16.20
2018-10-07T19:58:55.802Z,16.20
2018-10-07T20:01:24.778Z,16.20
2018-10-07T20:03:53.825Z,16.20
2018-10-07T20:06:22.854Z,16.20
2018-10-07T20:08:51.955Z,16.20
2018-10-07T20:11:20.805Z,16.20
2018-10-07T20:13:49.814Z,16.20
2018-10-07T20:16:18.821Z,16.20
2018-10-07T20:18:47.914Z,16.20
2018-10-07T20:21:17.018Z,16.20
2018-10-07T20:23:46.054Z,16.20
2018-10-07T20:26:15.064Z,16.20
2018-10-07T20:28:44.054Z,16.20
2018-10-07T20:31:13.025Z,16.20
2018-10-07T20:33:42.001Z,16.20
2018-10-07T20:36:11.042Z,16.20
2018-10-07T20:38:40.095Z,16.20
2018-10-07T20:41:09.027Z,16.20
2018-10-07T20:43:38.193Z,16.10
2018-10-07T20:46:07.159Z,16.10
2018-10-07T20:48:36.248Z,16.10
2018-10-07T20:51:05.170Z,16.00
2018-10-07T20:53:34.421Z,16.10
2018-10-07T20:56:03.546Z,16.10
2018-10-07T20:58:32.658Z,16.10
2018-10-07T21:01:01.614Z,16.00
2018-10-07T21:03:30.717Z,16.10
2018-10-07T21:05:59.737Z,16.00
2018-10-07T21:08:28.734Z,16.00
2018-10-07T21:10:57.765Z,15.90
2018-10-07T21:13:26.479Z,16.00
2018-10-07T21:15:55.596Z,16.00
2018-10-07T21:18:24.463Z,16.00
2018-10-07T21:20:53.226Z,16.00
2018-10-07T21:23:22.353Z,16.00
2018-10-07T21:25:51.386Z,16.00
2018-10-07T21:28:20.384Z,16.00
2018-10-07T21:30:49.405Z,16.00
2018-10-07T21:33:18.355Z,16.00
2018-10-07T21:35:47.402Z,16.00
2018-10-07T21:38:16.385Z,16.00
2018-10-07T21:40:45.418Z,15.90
2018-10-07T21:43:14.409Z,15.90
2018-10-07T21:45:43.311Z,15.90
2018-10-07T21:48:12.289Z,15.80
2018-10-07T21:50:41.334Z,15.80
2018-10-07T21:53:10.213Z,15.80
2018-10-07T21:55:39.237Z,15.90
2018-10-07T21:58:08.205Z,15.90
2018-10-07T22:00:37.258Z,15.90
2018-10-07T22:03:06.453Z,15.80
2018-10-07T22:05:35.414Z,15.80
2018-10-07T22:08:04.465Z,15.80
2018-10-07T22:10:33.506Z,15.80
2018-10-07T22:13:02.454Z,15.80
2018-10-07T22:15:31.447Z,15.80
2018-10-07T22:18:00.380Z,15.80
2018-10-07T22:20:29.453Z,15.80
2018-10-07T22:22:58.490Z,15.70
2018-10-07T22:25:27.427Z,15.70
2018-10-07T22:27:56.401Z,15.70
2018-10-07T22:30:25.276Z,15.70
2018-10-07T22:32:54.298Z,15.70
2018-10-07T22:35:23.558Z,15.70
2018-10-07T22:37:52.540Z,15.60
2018-10-07T22:40:21.403Z,15.70
2018-10-07T22:42:50.435Z,15.70
2018-10-07T22:45:19.133Z,15.60
2018-10-07T22:47:48.096Z,15.60
2018-10-07T22:50:16.978Z,15.60
2018-10-07T22:52:45.703Z,15.60
2018-10-07T22:55:14.799Z,15.60
2018-10-07T22:57:43.745Z,15.60
2018-10-07T23:00:12.854Z,15.60
2018-10-07T23:02:41.746Z,15.60
2018-10-07T23:05:10.735Z,15.60
2018-10-07T23:07:39.821Z,15.60
2018-10-07T23:10:08.746Z,15.50
2018-10-07T23:12:37.594Z,15.50
2018-10-07T23:15:07.033Z,15.50
2018-10-07T23:17:35.997Z,15.50
2018-10-07T23:20:05.230Z,15.50
2018-10-07T23:22:34.118Z,15.50
2018-10-07T23:25:02.973Z,15.50
2018-10-07T23:27:31.978Z,15.50
2018-10-07T23:30:01.055Z,15.40
2018-10-07T23:32:29.998Z,15.50
2018-10-07T23:34:59.022Z,15.40
2018-10-07T23:37:28.078Z,15.40
2018-10-07T23:39:57.039Z,15.40
2018-10-07T23:42:26.017Z,15.40
2018-10-07T23:44:55.018Z,15.30
2018-10-07T23:47:24.051Z,15.40
2018-10-07T23:49:53.010Z,15.40
2018-10-07T23:52:21.938Z,15.30
2018-10-07T23:54:50.981Z,15.30
2018-10-07T23:57:19.957Z,15.30
2018-10-07T23:59:49.250Z,15.30
